createdAt,value
2023-04-08T00:01:18.700Z,4.28
2023-04-08T00:03:45.950Z,4.39
2023-04-08T00:06:12.852Z,4.30
2023-04-08T00:08:39.922Z,4.37
2023-04-08T00:11:06.716Z,4.30
2023-04-08T00:13:33.594Z,4.39
2023-04-08T00:16:00.351Z,4.37
2023-04-08T00:18:27.260Z,4.30
2023-04-08T00:20:54.105Z,4.42
2023-04-08T00:23:21.517Z,4.51
2023-04-08T00:25:48.398Z,4.49
2023-04-08T00:28:16.794Z,4.46
2023-04-08T00:30:43.721Z,4.34
2023-04-08T00:33:10.538Z,4.38
2023-04-08T00:35:37.316Z,4.42
2023-04-08T00:38:06.613Z,4.41
2023-04-08T00:40:33.698Z,4.56
2023-04-08T00:43:01.354Z,4.47
2023-04-08T00:45:27.968Z,4.48
2023-04-08T00:47:54.669Z,4.48
2023-04-08T00:50:25.581Z,4.37
2023-04-08T00:52:52.883Z,4.34
2023-04-08T00:55:19.546Z,4.43
2023-04-08T00:57:48.998Z,4.34
2023-04-08T01:00:16.477Z,4.24
2023-04-08T01:03:06.030Z,4.31
2023-04-08T01:05:49.457Z,4.49
2023-04-08T01:08:16.958Z,4.47
2023-04-08T01:10:45.776Z,4.47
2023-04-08T01:13:14.632Z,4.53
2023-04-08T01:15:42.671Z,4.43
2023-04-08T01:18:12.504Z,4.35
2023-04-08T01:20:42.678Z,4.52
2023-04-08T01:23:19.111Z,4.47
2023-04-08T01:25:49.859Z,4.46
2023-04-08T01:28:18.316Z,4.49
2023-04-08T01:30:47.286Z,4.41
2023-04-08T01:33:15.988Z,4.40
2023-04-08T01:35:42.918Z,4.33
2023-04-08T01:38:12.053Z,4.32
2023-04-08T01:40:39.244Z,4.44
2023-04-08T01:43:08.435Z,4.33
2023-04-08T01:45:35.067Z,4.35
2023-04-08T01:48:02.398Z,4.49
2023-04-08T01:50:30.025Z,4.45
2023-04-08T01:52:59.385Z,4.46
2023-04-08T01:55:27.081Z,4.40
2023-04-08T01:57:54.500Z,4.37
2023-04-08T02:00:24.120Z,4.41
2023-04-08T02:02:51.274Z,4.41
2023-04-08T02:05:18.248Z,4.37
2023-04-08T02:07:46.750Z,4.31
2023-04-08T02:10:13.458Z,4.36
2023-04-08T02:12:40.188Z,4.39
2023-04-08T02:15:07.304Z,4.38
2023-04-08T02:17:38.448Z,4.36
2023-04-08T02:20:16.825Z,4.42
2023-04-08T02:22:52.659Z,4.29
2023-04-08T02:25:23.629Z,4.42
2023-04-08T02:27:50.954Z,4.48
2023-04-08T02:30:18.246Z,4.31
2023-04-08T02:32:46.436Z,4.37
2023-04-08T02:35:14.499Z,4.35
2023-04-08T02:37:41.269Z,4.42
2023-04-08T02:40:31.261Z,4.37
2023-04-08T02:42:58.719Z,4.40
2023-04-08T02:45:31.993Z,4.47
2023-04-08T02:48:02.234Z,4.38
2023-04-08T02:50:29.257Z,4.45
2023-04-08T02:52:56.140Z,4.34
2023-04-08T02:55:22.795Z,4.38
2023-04-08T02:57:49.623Z,4.43
2023-04-08T03:00:16.837Z,4.39
2023-04-08T03:02:43.570Z,4.42
2023-04-08T03:05:10.487Z,4.43
2023-04-08T03:07:37.383Z,4.43
2023-04-08T03:10:04.425Z,4.47
2023-04-08T03:12:31.476Z,4.28
2023-04-08T03:14:58.125Z,4.25
2023-04-08T03:17:24.791Z,4.34
2023-04-08T03:19:51.485Z,4.40
2023-04-08T03:22:18.136Z,4.47
2023-04-08T03:24:44.771Z,4.42
2023-04-08T03:27:12.641Z,4.29
2023-04-08T03:29:39.263Z,4.28
2023-04-08T03:32:06.300Z,4.40
2023-04-08T03:34:34.655Z,4.30
2023-04-08T03:37:01.769Z,4.39
2023-04-08T03:39:28.573Z,4.28
2023-04-08T03:41:55.318Z,4.28
2023-04-08T03:44:21.922Z,4.26
2023-04-08T03:46:51.658Z,4.21
2023-04-08T03:49:18.344Z,4.19
2023-04-08T03:51:44.986Z,4.24
2023-04-08T03:54:13.315Z,4.35
2023-04-08T03:56:40.483Z,4.36
2023-04-08T03:59:07.263Z,4.28
2023-04-08T04:01:34.282Z,4.33
2023-04-08T04:04:01.165Z,4.29
2023-04-08T04:06:28.158Z,4.32
2023-04-08T04:08:57.764Z,4.32
2023-04-08T04:11:24.524Z,4.34
2023-04-08T04:13:51.470Z,4.34
2023-04-08T04:16:18.250Z,4.32
2023-04-08T04:18:44.944Z,4.21
2023-04-08T04:21:11.631Z,4.33
2023-04-08T04:23:38.564Z,4.27
2023-04-08T04:26:09.960Z,4.36
2023-04-08T04:28:36.705Z,4.43
2023-04-08T04:31:04.958Z,4.32
2023-04-08T04:33:31.797Z,4.24
2023-04-08T04:35:58.486Z,4.24
2023-04-08T04:38:25.165Z,4.33
2023-04-08T04:40:51.880Z,4.39
2023-04-08T04:43:18.483Z,4.24
2023-04-08T04:45:45.252Z,4.35
2023-04-08T04:48:12.468Z,4.30
2023-04-08T04:50:39.055Z,4.37
2023-04-08T04:53:05.825Z,4.41
2023-04-08T04:55:32.645Z,4.39
2023-04-08T04:57:59.384Z,4.39
2023-04-08T05:00:26.035Z,4.36
2023-04-08T05:02:53.296Z,4.35
2023-04-08T05:05:20.770Z,4.42
2023-04-08T05:07:47.477Z,4.41
2023-04-08T05:10:14.109Z,4.47
2023-04-08T05:12:41.416Z,4.38
2023-04-08T05:15:08.166Z,4.37
2023-04-08T05:17:34.925Z,4.40
2023-04-08T05:20:02.623Z,4.45
2023-04-08T05:22:29.236Z,4.40
2023-04-08T05:24:56.048Z,4.45
2023-04-08T05:27:22.727Z,4.40
2023-04-08T05:29:49.360Z,4.29
2023-04-08T05:32:17.092Z,4.39
2023-04-08T05:34:44.070Z,4.29
2023-04-08T05:37:11.008Z,4.44
2023-04-08T05:39:37.767Z,4.42
2023-04-08T05:42:04.410Z,4.33
2023-04-08T05:44:31.215Z,4.43
2023-04-08T05:46:58.330Z,4.31
2023-04-08T05:49:25.027Z,4.29
2023-04-08T05:51:51.730Z,4.43
2023-04-08T05:54:18.375Z,4.37
2023-04-08T05:56:46.385Z,4.34
2023-04-08T05:59:13.145Z,4.45
2023-04-08T06:01:39.966Z,4.51
2023-04-08T06:04:07.007Z,4.50
2023-04-08T06:06:34.048Z,4.62
2023-04-08T06:09:00.770Z,4.66
2023-04-08T06:11:28.192Z,4.60
2023-04-08T06:13:54.961Z,4.66
2023-04-08T06:16:21.649Z,4.64
2023-04-08T06:18:49.237Z,4.69
2023-04-08T06:21:16.166Z,4.58
2023-04-08T06:23:42.889Z,4.60
2023-04-08T06:26:09.578Z,4.77
2023-04-08T06:28:36.350Z,4.77
2023-04-08T06:31:03.016Z,4.83
2023-04-08T06:33:29.698Z,4.77
2023-04-08T06:36:07.242Z,4.91
2023-04-08T06:38:34.466Z,4.93
2023-04-08T06:41:08.522Z,4.99
2023-04-08T06:43:36.543Z,5.02
2023-04-08T06:46:03.621Z,4.90
2023-04-08T06:48:30.996Z,4.99
2023-04-08T06:50:59.029Z,5.01
2023-04-08T06:53:26.992Z,4.97
2023-04-08T06:55:53.639Z,5.16
2023-04-08T06:58:23.231Z,5.22
2023-04-08T07:00:50.025Z,5.16
2023-04-08T07:03:16.925Z,5.14
2023-04-08T07:05:47.531Z,5.16
2023-04-08T07:08:14.422Z,5.05
2023-04-08T07:10:41.988Z,4.97
2023-04-08T07:13:08.829Z,5.12
2023-04-08T07:15:35.547Z,5.17
2023-04-08T07:18:02.922Z,5.22
2023-04-08T07:20:31.623Z,5.28
2023-04-08T07:22:58.871Z,5.34
2023-04-08T07:25:25.743Z,5.28
2023-04-08T07:27:52.976Z,5.17
2023-04-08T07:30:19.822Z,5.25
2023-04-08T07:32:46.515Z,5.39
2023-04-08T07:35:13.382Z,5.38
2023-04-08T07:37:40.172Z,5.43
2023-04-08T07:40:08.442Z,5.35
2023-04-08T07:42:35.570Z,5.20
2023-04-08T07:45:03.629Z,5.37
2023-04-08T07:47:30.388Z,5.47
2023-04-08T07:49:57.154Z,5.57
2023-04-08T07:52:23.813Z,5.50
2023-04-08T07:54:50.745Z,5.48
2023-04-08T07:57:17.704Z,5.56
2023-04-08T07:59:44.691Z,5.56
2023-04-08T08:02:11.796Z,5.60
2023-04-08T08:04:38.629Z,5.68
2023-04-08T08:07:05.872Z,5.62
2023-04-08T08:09:32.569Z,5.48
2023-04-08T08:11:59.201Z,5.54
2023-04-08T08:14:26.854Z,5.60
2023-04-08T08:16:54.357Z,5.77
2023-04-08T08:19:21.382Z,5.96
2023-04-08T08:21:48.260Z,5.99
2023-04-08T08:24:14.989Z,6.02
2023-04-08T08:26:41.848Z,5.99
2023-04-08T08:29:09.014Z,5.91
2023-04-08T08:31:35.856Z,5.88
2023-04-08T08:34:02.937Z,5.84
2023-04-08T08:36:29.684Z,6.01
2023-04-08T08:38:56.434Z,6.07
2023-04-08T08:41:23.243Z,6.01
2023-04-08T08:43:50.468Z,6.11
2023-04-08T08:46:19.121Z,6.05
2023-04-08T08:48:46.357Z,6.10
2023-04-08T08:51:13.639Z,6.19
2023-04-08T08:53:45.129Z,6.28
2023-04-08T08:58:42.034Z,6.23
2023-04-08T09:01:31.237Z,6.40
2023-04-08T09:04:17.263Z,6.49
2023-04-08T09:06:45.444Z,6.54
2023-04-08T09:09:12.309Z,6.54
2023-04-08T09:11:40.914Z,6.34
2023-04-08T09:14:24.786Z,6.53
2023-04-08T09:16:52.363Z,6.68
2023-04-08T09:19:19.195Z,6.68
2023-04-08T09:21:46.039Z,6.62
2023-04-08T09:24:28.923Z,6.57
2023-04-08T09:26:56.591Z,6.70
2023-04-08T09:29:27.628Z,6.69
2023-04-08T09:31:56.786Z,6.66
2023-04-08T09:34:24.018Z,6.85
2023-04-08T09:36:51.500Z,6.94
2023-04-08T09:39:18.226Z,7.06
2023-04-08T09:41:48.587Z,6.97
2023-04-08T09:44:20.058Z,6.95
2023-04-08T09:46:49.559Z,6.90
2023-04-08T09:49:39.126Z,7.15
2023-04-08T09:52:15.788Z,7.17
2023-04-08T09:54:51.923Z,7.21
2023-04-08T09:57:29.040Z,7.18
2023-04-08T10:00:05.836Z,7.23
2023-04-08T10:02:36.624Z,7.28
2023-04-08T10:05:04.960Z,7.43
2023-04-08T10:07:33.015Z,7.43
2023-04-08T10:09:59.710Z,7.23
2023-04-08T10:12:26.559Z,7.36
2023-04-08T10:15:23.746Z,7.67
2023-04-08T10:17:51.313Z,7.72
2023-04-08T10:20:36.445Z,7.82
2023-04-08T10:23:04.290Z,7.67
2023-04-08T10:25:32.757Z,7.77
2023-04-08T10:28:11.832Z,7.94
2023-04-08T10:30:38.488Z,7.82
2023-04-08T10:33:11.292Z,7.86
2023-04-08T10:36:04.654Z,8.04
2023-04-08T10:38:32.124Z,7.92
2023-04-08T10:41:02.648Z,7.91
2023-04-08T10:43:33.879Z,7.77
2023-04-08T10:46:00.681Z,7.88
2023-04-08T10:48:29.208Z,7.95
2023-04-08T10:51:00.443Z,7.95
2023-04-08T10:53:36.063Z,7.80
2023-04-08T10:56:17.730Z,7.68
2023-04-08T10:58:59.078Z,7.80
2023-04-08T11:01:30.322Z,7.98
2023-04-08T11:03:58.961Z,7.73
2023-04-08T11:06:30.920Z,7.96
2023-04-08T11:09:00.150Z,8.08
2023-04-08T11:11:29.687Z,8.09
2023-04-08T11:13:57.383Z,8.13
2023-04-08T11:16:24.332Z,8.06
2023-04-08T11:18:51.083Z,8.08
2023-04-08T11:21:20.409Z,8.19
2023-04-08T11:23:50.174Z,8.05
2023-04-08T11:26:17.277Z,8.23
2023-04-08T11:28:45.486Z,8.29
2023-04-08T11:31:13.237Z,8.31
2023-04-08T11:33:45.917Z,8.34
2023-04-08T11:36:12.623Z,8.23
2023-04-08T11:38:41.383Z,8.24
2023-04-08T11:41:12.161Z,8.37
2023-04-08T11:43:41.055Z,8.35
2023-04-08T11:46:11.565Z,8.29
2023-04-08T11:48:39.280Z,8.17
2023-04-08T11:51:09.786Z,8.22
2023-04-08T11:53:37.836Z,8.27
2023-04-08T11:56:21.308Z,8.40
2023-04-08T11:58:49.282Z,8.51
2023-04-08T12:01:16.328Z,8.57
2023-04-08T12:03:54.586Z,8.69
2023-04-08T12:06:21.401Z,8.92
2023-04-08T12:08:48.118Z,9.15
2023-04-08T12:11:20.085Z,9.29
2023-04-08T12:13:47.173Z,9.46
2023-04-08T12:16:14.330Z,9.63
2023-04-08T12:18:41.680Z,9.92
2023-04-08T12:21:08.563Z,9.87
2023-04-08T12:23:35.484Z,9.94
2023-04-08T12:26:03.829Z,10.16
2023-04-08T12:28:30.466Z,10.50
2023-04-08T12:30:57.202Z,10.43
2023-04-08T12:33:23.820Z,10.67
2023-04-08T12:35:50.577Z,10.88
2023-04-08T12:38:17.656Z,11.06
2023-04-08T12:40:44.270Z,10.99
2023-04-08T12:43:11.226Z,10.95
2023-04-08T12:45:38.037Z,11.26
2023-04-08T12:48:05.130Z,11.58
2023-04-08T12:50:31.755Z,11.75
2023-04-08T12:52:58.428Z,11.67
2023-04-08T12:55:25.263Z,11.51
2023-04-08T12:57:52.417Z,11.37
2023-04-08T13:00:19.567Z,11.30
2023-04-08T13:02:46.775Z,10.83
2023-04-08T13:05:13.547Z,10.97
2023-04-08T13:07:40.514Z,11.19
2023-04-08T13:10:08.503Z,11.22
2023-04-08T13:12:35.141Z,11.15
2023-04-08T13:15:02.029Z,11.34
2023-04-08T13:17:29.064Z,11.68
2023-04-08T13:19:55.822Z,11.94
2023-04-08T13:22:24.157Z,12.06
2023-04-08T13:24:51.334Z,12.16
2023-04-08T13:27:18.057Z,12.24
2023-04-08T13:29:45.712Z,12.47
2023-04-08T13:32:12.510Z,12.26
2023-04-08T13:34:39.448Z,11.96
2023-04-08T13:37:06.147Z,11.68
2023-04-08T13:39:33.526Z,11.40
2023-04-08T13:42:00.242Z,11.32
2023-04-08T13:44:27.249Z,11.14
2023-04-08T13:46:54.035Z,11.13
2023-04-08T13:49:20.641Z,11.30
2023-04-08T13:51:47.245Z,11.54
2023-04-08T13:54:13.909Z,11.70
2023-04-08T13:56:40.532Z,11.64
2023-04-08T13:59:07.460Z,11.70
2023-04-08T14:01:34.245Z,11.63
2023-04-08T14:04:01.107Z,11.30
2023-04-08T14:06:27.798Z,11.42
2023-04-08T14:08:54.648Z,11.49
2023-04-08T14:11:21.385Z,11.63
2023-04-08T14:13:49.209Z,11.68
2023-04-08T14:16:16.744Z,11.71
2023-04-08T14:18:43.375Z,11.90
2023-04-08T14:21:10.086Z,11.72
2023-04-08T14:23:36.793Z,11.66
2023-04-08T14:26:03.576Z,11.80
2023-04-08T14:28:33.107Z,11.81
2023-04-08T14:30:59.758Z,11.39
2023-04-08T14:33:27.276Z,11.24
2023-04-08T14:35:57.320Z,11.34
2023-04-08T14:38:23.975Z,11.38
2023-04-08T14:40:50.741Z,11.56
2023-04-08T14:43:17.510Z,11.58
2023-04-08T14:45:45.044Z,11.63
2023-04-08T14:48:11.927Z,11.55
2023-04-08T14:50:38.639Z,11.47
2023-04-08T14:53:05.406Z,11.47
2023-04-08T14:55:32.358Z,11.51
2023-04-08T14:58:00.926Z,11.63
2023-04-08T15:00:27.856Z,11.46
2023-04-08T15:02:54.673Z,11.60
2023-04-08T15:05:21.498Z,11.60
2023-04-08T15:07:48.521Z,11.37
2023-04-08T15:10:15.193Z,11.33
2023-04-08T15:12:41.918Z,11.59
2023-04-08T15:15:08.937Z,11.65
2023-04-08T15:17:35.705Z,11.67
2023-04-08T15:20:02.430Z,11.41
2023-04-08T15:22:29.069Z,11.15
2023-04-08T15:24:55.927Z,10.67
2023-04-08T15:27:22.840Z,10.95
2023-04-08T15:29:49.950Z,11.15
2023-04-08T15:32:21.495Z,11.23
2023-04-08T15:34:48.445Z,11.05
2023-04-08T15:37:15.705Z,11.07
2023-04-08T15:39:42.530Z,11.01
2023-04-08T15:42:09.125Z,11.12
2023-04-08T15:44:36.155Z,10.99
2023-04-08T15:47:03.058Z,10.82
2023-04-08T15:49:30.001Z,10.94
2023-04-08T15:51:56.745Z,10.91
2023-04-08T15:54:23.363Z,10.78
2023-04-08T15:56:50.039Z,10.74
2023-04-08T15:59:16.984Z,10.72
2023-04-08T16:01:44.169Z,10.78
2023-04-08T16:04:11.213Z,10.67
2023-04-08T16:06:38.415Z,10.54
2023-04-08T16:09:05.402Z,10.50
2023-04-08T16:11:34.008Z,10.43
2023-04-08T16:14:00.831Z,10.27
2023-04-08T16:16:27.556Z,10.32
2023-04-08T16:18:56.205Z,10.26
2023-04-08T16:21:23.001Z,10.19
2023-04-08T16:23:49.893Z,10.26
2023-04-08T16:26:17.147Z,9.96
2023-04-08T16:28:43.883Z,9.95
2023-04-08T16:31:10.726Z,9.91
2023-04-08T16:33:37.444Z,9.93
2023-04-08T16:36:04.432Z,9.79
2023-04-08T16:38:31.088Z,9.65
2023-04-08T16:41:01.131Z,9.53
2023-04-08T16:43:28.150Z,9.58
2023-04-08T16:45:54.773Z,9.55
2023-04-08T16:48:21.387Z,9.73
2023-04-08T16:50:48.022Z,9.69
2023-04-08T16:53:14.860Z,9.57
2023-04-08T16:55:41.567Z,9.59
2023-04-08T16:58:08.427Z,9.63
2023-04-08T17:00:35.161Z,9.56
2023-04-08T17:03:02.442Z,9.40
2023-04-08T17:05:29.477Z,9.33
2023-04-08T17:07:59.088Z,9.31
2023-04-08T17:10:25.778Z,9.38
2023-04-08T17:12:52.508Z,9.25
2023-04-08T17:15:19.321Z,9.14
2023-04-08T17:17:46.596Z,9.00
2023-04-08T17:20:13.519Z,9.03
2023-04-08T17:22:40.228Z,8.91
2023-04-08T17:25:08.078Z,8.91
2023-04-08T17:27:35.038Z,9.00
2023-04-08T17:30:01.863Z,8.93
2023-04-08T17:32:28.538Z,8.83
2023-04-08T17:34:55.668Z,8.79
2023-04-08T17:37:22.372Z,8.70
2023-04-08T17:39:49.024Z,8.53
2023-04-08T17:42:16.891Z,8.55
2023-04-08T17:44:44.853Z,8.42
2023-04-08T17:47:11.500Z,8.37
2023-04-08T17:49:38.238Z,8.19
2023-04-08T17:52:06.015Z,8.24
2023-04-08T17:54:34.499Z,8.23
2023-04-08T17:57:01.579Z,8.10
2023-04-08T17:59:28.293Z,7.86
2023-04-08T18:01:55.151Z,7.82
2023-04-08T18:04:22.854Z,7.81
2023-04-08T18:06:49.595Z,7.77
2023-04-08T18:09:16.232Z,7.71
2023-04-08T18:11:42.821Z,7.69
2023-04-08T18:14:09.783Z,7.66
2023-04-08T18:16:36.467Z,7.54
2023-04-08T18:19:03.310Z,7.49
2023-04-08T18:21:30.028Z,7.40
2023-04-08T18:23:56.631Z,7.34
2023-04-08T18:26:23.439Z,7.18
2023-04-08T18:28:50.283Z,7.07
2023-04-08T18:31:17.054Z,7.09
2023-04-08T18:33:43.807Z,7.04
2023-04-08T18:36:12.662Z,6.98
2023-04-08T18:38:40.917Z,6.84
2023-04-08T18:41:07.976Z,6.72
2023-04-08T18:43:34.717Z,6.72
2023-04-08T18:46:01.620Z,6.57
2023-04-08T18:48:28.636Z,6.47
2023-04-08T18:50:55.344Z,6.43
2023-04-08T18:53:22.618Z,6.60
2023-04-08T18:55:49.277Z,6.60
2023-04-08T18:58:15.934Z,6.46
2023-04-08T19:00:43.747Z,6.53
2023-04-08T19:03:10.786Z,6.61
2023-04-08T19:05:37.890Z,6.71
2023-04-08T19:08:04.848Z,6.72
2023-04-08T19:10:32.977Z,6.75
2023-04-08T19:12:59.969Z,6.74
2023-04-08T19:15:26.977Z,6.78
2023-04-08T19:17:54.225Z,6.62
2023-04-08T19:20:21.279Z,6.70
2023-04-08T19:22:49.201Z,6.80
2023-04-08T19:25:16.967Z,6.77
2023-04-08T19:27:45.777Z,6.67
2023-04-08T19:30:13.203Z,6.69
2023-04-08T19:32:42.851Z,6.94
2023-04-08T19:35:12.564Z,6.86
2023-04-08T19:37:39.302Z,6.83
2023-04-08T19:40:07.326Z,6.73
2023-04-08T19:42:34.156Z,6.85
2023-04-08T19:45:03.834Z,6.76
2023-04-08T19:47:30.541Z,6.66
2023-04-08T19:49:58.250Z,6.65
2023-04-08T19:52:25.393Z,6.61
2023-04-08T19:54:52.377Z,6.61
2023-04-08T19:57:19.891Z,6.75
2023-04-08T19:59:48.766Z,6.74
2023-04-08T20:02:21.808Z,6.70
2023-04-08T20:04:54.153Z,6.63
2023-04-08T20:07:25.299Z,6.61
2023-04-08T20:09:52.024Z,6.66
2023-04-08T20:12:18.792Z,6.56
2023-04-08T20:14:46.012Z,6.50
2023-04-08T20:17:12.912Z,6.48
2023-04-08T20:19:40.333Z,6.62
2023-04-08T20:22:07.155Z,6.66
2023-04-08T20:24:34.223Z,6.64
2023-04-08T20:27:01.498Z,6.80
2023-04-08T20:29:28.602Z,6.75
2023-04-08T20:31:55.337Z,6.66
2023-04-08T20:34:22.340Z,6.70
2023-04-08T20:36:49.055Z,6.90
2023-04-08T20:39:16.773Z,6.73
2023-04-08T20:41:43.535Z,6.75
2023-04-08T20:44:12.444Z,6.86
2023-04-08T20:46:39.719Z,6.86
2023-04-08T20:49:06.629Z,6.92
2023-04-08T20:51:40.025Z,6.92
2023-04-08T20:54:17.805Z,6.80
2023-04-08T20:56:54.125Z,6.69
2023-04-08T20:59:30.441Z,6.77
2023-04-08T21:02:03.175Z,6.54
2023-04-08T21:04:29.927Z,6.55
2023-04-08T21:06:56.778Z,6.59
2023-04-08T21:09:23.459Z,6.53
2023-04-08T21:11:50.157Z,6.61
2023-04-08T21:14:19.067Z,6.62
2023-04-08T21:16:46.202Z,6.43
2023-04-08T21:19:16.034Z,6.32
2023-04-08T21:21:45.451Z,6.28
2023-04-08T21:24:13.543Z,6.22
2023-04-08T21:26:40.442Z,6.14
2023-04-08T21:29:09.586Z,6.21
2023-04-08T21:31:38.017Z,6.44
2023-04-08T21:34:06.188Z,6.33
2023-04-08T21:36:33.675Z,6.48
2023-04-08T21:39:00.624Z,6.45
2023-04-08T21:41:30.205Z,6.38
2023-04-08T21:43:57.375Z,6.32
2023-04-08T21:46:24.155Z,6.30
2023-04-08T21:48:51.203Z,6.41
2023-04-08T21:51:18.485Z,6.30
2023-04-08T21:53:45.648Z,6.37
2023-04-08T21:56:13.987Z,6.22
2023-04-08T21:58:40.810Z,6.29
2023-04-08T22:01:07.872Z,6.28
2023-04-08T22:03:34.781Z,6.40
2023-04-08T22:06:08.783Z,6.29
2023-04-08T22:08:35.595Z,6.33
2023-04-08T22:11:09.538Z,6.41
2023-04-08T22:13:36.346Z,6.41
2023-04-08T22:16:03.129Z,6.18
2023-04-08T22:18:29.893Z,6.08
2023-04-08T22:20:56.473Z,6.05
2023-04-08T22:23:26.221Z,6.10
2023-04-08T22:25:52.963Z,6.17
2023-04-08T22:28:19.729Z,6.09
2023-04-08T22:30:46.877Z,6.05
2023-04-08T22:33:13.566Z,6.21
2023-04-08T22:35:40.665Z,6.33
2023-04-08T22:38:07.460Z,6.26
2023-04-08T22:40:37.290Z,6.10
2023-04-08T22:43:03.949Z,6.08
2023-04-08T22:45:30.602Z,6.06
2023-04-08T22:47:57.258Z,6.12
2023-04-08T22:50:24.196Z,6.13
2023-04-08T22:52:50.922Z,6.04
2023-04-08T22:55:17.534Z,6.03
2023-04-08T22:57:44.521Z,6.13
2023-04-08T23:00:14.943Z,5.98
2023-04-08T23:02:44.081Z,6.11
2023-04-08T23:05:13.448Z,5.89
2023-04-08T23:07:40.395Z,5.88
2023-04-08T23:10:07.726Z,6.03
2023-04-08T23:12:34.645Z,5.96
2023-04-08T23:15:01.872Z,5.87
2023-04-08T23:17:31.565Z,5.93
2023-04-08T23:19:58.177Z,6.00
2023-04-08T23:22:25.059Z,5.86
2023-04-08T23:24:51.996Z,5.90
2023-04-08T23:27:25.208Z,5.96
2023-04-08T23:29:51.807Z,5.98
2023-04-08T23:32:23.842Z,6.14
2023-04-08T23:34:50.649Z,6.00
2023-04-08T23:37:17.493Z,5.85
2023-04-08T23:39:44.119Z,5.95
2023-04-08T23:42:10.942Z,5.82
2023-04-08T23:44:37.636Z,5.84
2023-04-08T23:47:04.272Z,5.83
2023-04-08T23:49:30.910Z,5.87
2023-04-08T23:51:57.546Z,5.98
2023-04-08T23:54:24.325Z,5.96
2023-04-08T23:56:50.975Z,5.84
2023-04-08T23:59:17.609Z,5.81
